Terminal Aerodrome Forecast
Issued by NWS

Home | Current Version | Previous Version | Text Only | Print | Product List | Glossary On
Versions: 1 2 3 4 5 6 7 8 9 10 11 12
000
FTUS42 KTAE 292300
TAFVLD
TAF
KVLD 292321Z 3000/3024 17003KT P6SM SCT120 BKN250
      TEMPO 3009/3013 5SM BR SCT002
     FM301600 16003KT P6SM VCTS SCT035CB BKN050
      TEMPO 3020/3024 5SM TSRA BKN035CB=

USA.gov is the U.S. government's official web portal to all federal, state and local government web resources and services.